Time;durP1;ratioP1;P1;durP2;ratioP2;P2;SDS_P1;SDS_P2;PMS_P1;PMS_P2;Temp;Humidity;BMP_temperature;BMP_pressure;BME280_temperature;BME280_humidity;BME280_pressure;Samples;Min_cycle;Max_cycle;Signal;HPM_P1;HPM_P2
2022/05/05 00:02:14;;;;;;;11.90;5.15;;;;;;;-142.75;100.00;77844.09;5031200;28;20060;-66
2022/05/05 00:04:39;;;;;;;11.48;5.55;;;;;;;-142.75;100.00;77846.06;5031462;28;20033;-66
2022/05/05 00:07:04;;;;;;;9.55;5.75;;;;;;;-142.75;100.00;77844.09;5031110;28;20379;-66
2022/05/05 00:09:30;;;;;;;11.10;5.07;;;;;;;-142.75;100.00;77846.06;5032092;28;20028;-65
2022/05/05 00:14:40;;;;;;;11.32;5.95;;;;;;;-142.75;100.00;77846.06;5031787;28;20140;-66
2022/05/05 00:17:08;;;;;;;11.93;6.05;;;;;;;-142.75;100.00;77838.19;5030824;28;20029;-65
2022/05/05 00:19:35;;;;;;;16.95;6.80;;;;;;;-142.75;100.00;77834.25;5031193;28;20036;-66
2022/05/05 00:22:02;;;;;;;13.00;6.97;;;;;;;-142.75;100.00;77830.31;5031709;28;20108;-65
2022/05/05 00:24:27;;;;;;;15.20;7.28;;;;;;;-142.75;100.00;77826.38;5031874;28;20466;-65
2022/05/05 00:26:53;;;;;;;15.77;6.68;;;;;;;-142.75;100.00;77820.47;5031437;28;20144;-65
2022/05/05 00:29:19;;;;;;;;;;;;;;;-142.75;100.00;77812.59;5032002;28;20045;-65
2022/05/05 00:31:45;;;;;;;13.68;6.13;;;;;;;-142.75;100.00;77812.59;5031473;28;19939;-65
2022/05/05 00:34:10;;;;;;;14.27;6.60;;;;;;;-142.75;100.00;77802.75;5031827;28;20026;-66
2022/05/05 00:36:36;;;;;;;14.38;7.03;;;;;;;-142.75;100.00;77806.69;5031595;28;20031;-66
2022/05/05 00:39:02;;;;;;;12.60;6.68;;;;;;;-142.75;100.00;77804.72;5031885;28;20029;-66
2022/05/05 00:41:33;;;;;;;10.45;6.65;;;;;;;-142.75;100.00;77810.63;5031683;28;20037;-65
2022/05/05 00:43:58;;;;;;;13.02;6.35;;;;;;;-142.75;100.00;77806.69;5031544;28;20029;-65
2022/05/05 00:46:23;;;;;;;13.63;7.30;;;;;;;-142.75;100.00;77812.59;5030025;28;20034;-66
2022/05/05 00:48:50;;;;;;;13.05;6.40;;;;;;;-142.75;100.00;77814.56;5031023;28;20032;-66
2022/05/05 00:51:16;;;;;;;13.23;6.47;;;;;;;-142.75;100.00;77814.56;5031504;28;20025;-65
2022/05/05 00:53:41;;;;;;;11.85;6.25;;;;;;;-142.75;100.00;77816.53;5031439;28;20524;-65
2022/05/05 00:56:13;;;;;;;11.73;6.60;;;;;;;-142.75;100.00;77826.38;5031118;28;20041;-65
2022/05/05 00:58:39;;;;;;;12.30;6.55;;;;;;;-142.75;100.00;77826.38;5030806;28;20025;-66
2022/05/05 01:01:04;;;;;;;;;;;;;;;-142.75;100.00;77826.38;5031588;28;20546;-66
2022/05/05 01:03:34;;;;;;;9.60;5.68;;;;;;;-142.75;100.00;77830.31;5031187;28;19992;-66
2022/05/05 01:06:01;;;;;;;14.40;6.47;;;;;;;-142.75;100.00;77844.09;5030853;28;20033;-66
2022/05/05 01:08:27;;;;;;;12.50;5.63;;;;;;;-142.75;100.00;77840.16;5031321;28;20087;-66
2022/05/05 01:10:52;;;;;;;16.33;7.22;;;;;;;-142.75;100.00;77834.25;5030641;28;20029;-66
2022/05/05 01:13:17;;;;;;;11.75;6.68;;;;;;;-142.75;100.00;77824.41;5030767;28;20017;-66
2022/05/05 01:15:43;;;;;;;11.63;6.07;;;;;;;-142.75;100.00;77830.31;5030657;28;20083;-66
2022/05/05 01:18:09;;;;;;;12.15;7.20;;;;;;;-142.75;100.00;77830.31;5030460;28;20068;-66
2022/05/05 01:20:44;;;;;;;14.98;6.85;;;;;;;-142.75;100.00;77838.19;5030294;28;20033;-66
2022/05/05 01:23:10;;;;;;;14.32;6.10;;;;;;;-142.75;100.00;77848.03;5030537;28;20029;-66
2022/05/05 01:28:19;;;;;;;16.13;7.25;;;;;;;-142.75;100.00;77855.91;5029628;28;20040;-66
2022/05/05 01:30:46;;;;;;;12.93;7.28;;;;;;;-142.75;100.00;77861.81;5030389;28;20025;-66
2022/05/05 01:33:16;;;;;;;17.48;7.38;;;;;;;-142.75;100.00;77871.66;5030205;28;20055;-66
2022/05/05 01:35:43;;;;;;;13.45;7.13;;;;;;;-142.75;100.00;77877.56;5026071;28;20025;-66
2022/05/05 01:38:10;;;;;;;15.23;7.47;;;;;;;-142.75;100.00;77885.44;5029504;28;20495;-66
2022/05/05 01:40:37;;;;;;;16.88;7.65;;;;;;;-142.75;100.00;77891.34;5029892;28;20041;-66
2022/05/05 01:43:03;;;;;;;13.02;6.95;;;;;;;-142.75;100.00;77897.25;5029345;28;20056;-66
2022/05/05 01:45:30;;;;;;;16.60;8.07;;;;;;;-142.75;100.00;77899.22;5030036;28;20033;-66
2022/05/05 01:47:55;;;;;;;13.63;7.07;;;;;;;-142.75;100.00;77901.19;5029833;28;20021;-66
2022/05/05 01:50:22;;;;;;;15.98;7.18;;;;;;;-142.75;100.00;77911.06;5030415;28;20040;-66
2022/05/05 01:52:47;;;;;;;16.90;7.93;;;;;;;-142.75;100.00;77913.03;5030296;28;20390;-66
2022/05/05 01:55:13;;;;;;;14.40;6.97;;;;;;;-142.75;100.00;77924.84;5030065;28;20030;-67
2022/05/05 01:57:38;;;;;;;14.45;8.02;;;;;;;-142.75;100.00;77928.78;5030159;28;20080;-66
2022/05/05 02:00:05;;;;;;;14.38;7.32;;;;;;;-142.75;100.00;77934.69;5029954;28;20068;-66
2022/05/05 02:02:30;;;;;;;19.40;7.72;;;;;;;-142.75;100.00;77940.59;5029877;28;20060;-65
2022/05/05 02:04:55;;;;;;;12.82;7.07;;;;;;;-142.75;100.00;77940.59;5030429;28;20047;-65
2022/05/05 02:07:21;;;;;;;15.45;7.03;;;;;;;-142.75;100.00;77944.53;5065344;22;20065;-67
2022/05/05 02:09:46;;;;;;;12.45;7.10;;;;;;;-142.75;100.00;77940.59;5046851;28;20016;-68
2022/05/05 02:12:11;;;;;;;15.38;7.93;;;;;;;-142.75;100.00;77940.59;5048103;28;20029;-68
2022/05/05 02:14:36;;;;;;;15.32;7.75;;;;;;;-142.75;100.00;77944.53;5048438;28;20025;-67
2022/05/05 02:17:02;;;;;;;15.43;7.70;;;;;;;-142.75;100.00;77946.50;5043853;28;20063;-65
2022/05/05 02:19:27;;;;;;;13.10;6.85;;;;;;;-142.75;100.00;77948.47;5041872;28;20040;-67
2022/05/05 02:21:53;;;;;;;13.80;6.67;;;;;;;-142.75;100.00;77954.38;5041751;28;20104;-67
2022/05/05 02:24:18;;;;;;;14.07;6.32;;;;;;;-142.75;100.00;77962.25;5039910;28;20263;-68
2022/05/05 02:26:43;;;;;;;11.65;6.15;;;;;;;-142.75;100.00;77960.28;5041451;28;20040;-68
2022/05/05 02:29:08;;;;;;;13.88;6.40;;;;;;;-142.75;100.00;77958.31;5027859;28;20033;-67
2022/05/05 02:31:34;;;;;;;11.93;6.35;;;;;;;-142.75;100.00;77952.41;5041036;28;20025;-66
2022/05/05 02:33:59;;;;;;;14.25;7.00;;;;;;;-142.75;100.00;77952.41;5042300;28;20048;-67
2022/05/05 02:39:08;;;;;;;12.10;6.20;;;;;;;-142.75;100.00;77942.56;5044249;28;20032;-67
2022/05/05 02:41:33;;;;;;;13.30;6.75;;;;;;;-142.75;100.00;77940.59;5044165;28;20395;-67
2022/05/05 02:43:59;;;;;;;12.48;5.93;;;;;;;-142.75;100.00;77934.69;5042576;28;20048;-68
2022/05/05 02:46:24;;;;;;;13.63;5.93;;;;;;;-142.75;100.00;77926.81;5043172;28;20033;-67
2022/05/05 02:48:49;;;;;;;11.93;6.43;;;;;;;-142.75;100.00;77928.78;5043047;28;20437;-67
2022/05/05 02:51:15;;;;;;;17.58;6.57;;;;;;;-142.75;100.00;77928.78;5045807;28;20037;-67
2022/05/05 02:56:23;;;;;;;11.23;6.22;;;;;;;-142.75;100.00;77928.78;5044856;28;20043;-68
2022/05/05 02:58:49;;;;;;;12.35;5.72;;;;;;;-142.75;100.00;77926.81;5044964;28;20025;-67
2022/05/05 03:01:14;;;;;;;11.88;5.93;;;;;;;-142.75;100.00;77940.59;5042981;28;20031;-68
2022/05/05 03:03:39;;;;;;;11.20;6.05;;;;;;;-142.75;100.00;77936.66;5043035;28;20031;-67
2022/05/05 03:06:05;;;;;;;11.23;5.55;;;;;;;-142.75;100.00;77950.44;5042710;28;20029;-67
2022/05/05 03:08:30;;;;;;;12.02;5.35;;;;;;;-142.75;100.00;77978.00;5047608;28;20029;-69
2022/05/05 03:10:56;;;;;;;10.65;6.05;;;;;;;-142.75;100.00;78013.44;5044864;28;20104;-67
2022/05/05 03:13:21;;;;;;;8.03;3.97;;;;;;;-142.75;100.00;78042.97;5044444;28;20025;-68
2022/05/05 03:15:46;;;;;;;7.40;4.07;;;;;;;-142.75;100.00;78048.88;5044658;28;20833;-66
2022/05/05 03:18:11;;;;;;;11.82;4.50;;;;;;;-142.75;100.00;78048.88;5042417;28;20302;-67
2022/05/05 03:20:37;;;;;;;9.20;4.53;;;;;;;-142.75;100.00;78054.81;5042537;28;20028;-66
2022/05/05 03:23:02;;;;;;;8.10;4.68;;;;;;;-142.75;100.00;78046.91;5045200;28;20025;-67
2022/05/05 03:25:28;;;;;;;9.95;5.30;;;;;;;-142.75;100.00;78042.97;5044626;28;20405;-68
2022/05/05 03:27:53;;;;;;;9.10;5.30;;;;;;;-142.75;100.00;78050.84;5043708;28;20497;-66
2022/05/05 03:30:19;;;;;;;10.32;5.45;;;;;;;-142.75;100.00;78058.72;5045500;28;20028;-67
2022/05/05 03:32:44;;;;;;;9.10;4.68;;;;;;;-142.75;100.00;78054.81;5044083;28;20033;-66
2022/05/05 03:35:10;;;;;;;10.32;5.80;;;;;;;-142.75;100.00;78054.81;5042631;28;20021;-65
2022/05/05 03:37:35;;;;;;;10.60;5.75;;;;;;;-142.75;100.00;78054.81;5045336;28;20025;-67
2022/05/05 03:40:01;;;;;;;8.98;5.55;;;;;;;-142.75;100.00;78050.84;5045852;28;20051;-69
2022/05/05 03:42:26;;;;;;;10.30;5.10;;;;;;;-142.75;100.00;78050.84;5044132;28;20029;-67
2022/05/05 03:44:51;;;;;;;12.13;5.78;;;;;;;-142.75;100.00;78046.91;5040936;28;20406;-67
2022/05/05 03:47:19;;;;;;;14.10;6.43;;;;;;;-142.75;100.00;78027.22;5042576;28;20421;-67
2022/05/05 03:49:44;;;;;;;13.57;6.53;;;;;;;-142.75;100.00;78007.53;5042080;28;20021;-65
2022/05/05 03:52:10;;;;;;;13.13;6.22;;;;;;;-142.75;100.00;77995.72;5044190;28;20027;-67
2022/05/05 03:54:35;;;;;;;;;;;;;;;-142.75;100.00;77978.00;5042536;28;20029;-67
2022/05/05 03:57:01;;;;;;;13.02;6.72;;;;;;;-142.75;100.00;77972.09;5044711;28;20470;-67
2022/05/05 03:59:26;;;;;;;15.70;8.15;;;;;;;-142.75;100.00;77960.28;5041624;28;20037;-66
2022/05/05 04:01:51;;;;;;;13.13;6.65;;;;;;;-142.75;100.00;77958.31;5043211;28;20017;-68
2022/05/05 04:04:17;;;;;;;15.75;7.30;;;;;;;-142.75;100.00;77944.53;5043815;28;20395;-68
2022/05/05 04:06:43;;;;;;;;;;;;;;;-142.75;100.00;77948.47;5043553;28;20057;-68
2022/05/05 04:09:10;;;;;;;14.15;7.18;;;;;;;-142.75;100.00;77938.63;5046848;28;19944;-67
2022/05/05 04:11:36;;;;;;;17.90;7.80;;;;;;;-142.75;100.00;77948.47;5044267;28;20478;-68
2022/05/05 04:14:01;;;;;;;12.98;6.75;;;;;;;-142.75;100.00;77952.41;5042525;28;20031;-67
2022/05/05 04:16:27;;;;;;;14.05;7.82;;;;;;;-142.75;100.00;77960.28;5040880;28;20470;-67
2022/05/05 04:18:52;;;;;;;13.85;6.55;;;;;;;-142.75;100.00;77962.25;5039997;28;22070;-67
2022/05/05 04:21:17;;;;;;;16.97;7.37;;;;;;;-142.75;100.00;77966.19;5041246;28;20136;-67
2022/05/05 04:23:42;;;;;;;12.77;6.80;;;;;;;-142.75;100.00;77964.22;5044206;28;20279;-64
2022/05/05 04:26:11;;;;;;;15.63;7.88;;;;;;;-142.75;100.00;77964.22;5043230;28;20798;-67
2022/05/05 04:28:36;;;;;;;15.13;6.97;;;;;;;-142.75;100.00;77966.19;5041425;28;20021;-68
2022/05/05 04:31:02;;;;;;;14.02;7.60;;;;;;;-142.75;100.00;77968.16;5042964;28;20044;-67
2022/05/05 04:33:27;;;;;;;;;;;;;;;-142.75;100.00;77972.09;5043376;28;20051;-67
2022/05/05 04:35:53;;;;;;;14.13;6.88;;;;;;;-142.75;100.00;77972.09;5042584;28;20011;-68
2022/05/05 04:38:18;;;;;;;14.00;7.15;;;;;;;-142.75;100.00;77974.06;5043411;28;20021;-67
2022/05/05 04:40:44;;;;;;;15.13;7.90;;;;;;;-142.75;100.00;77972.09;5042973;28;20017;-67
2022/05/05 04:43:09;;;;;;;15.13;6.97;;;;;;;-142.75;100.00;77968.16;5041364;28;20029;-68
2022/05/05 04:45:35;;;;;;;13.80;7.40;;;;;;;-142.75;100.00;77966.19;5040974;28;20021;-65
2022/05/05 04:48:00;;;;;;;20.90;7.95;;;;;;;-142.75;100.00;77962.25;5043364;28;20759;-67
2022/05/05 04:50:25;;;;;;;15.75;8.15;;;;;;;-142.75;100.00;77968.16;5042865;28;20029;-67
2022/05/05 04:52:51;;;;;;;18.70;7.72;;;;;;;-142.75;100.00;77970.13;5042513;28;20019;-67
2022/05/05 04:55:17;;;;;;;16.90;9.10;;;;;;;-142.75;100.00;77962.25;5042703;28;20024;-69
2022/05/05 04:57:42;;;;;;;18.67;7.88;;;;;;;-142.75;100.00;77954.38;5040517;28;20111;-64
2022/05/05 05:00:09;;;;;;;23.10;8.40;;;;;;;-142.75;100.00;77950.44;5042298;28;20028;-67
2022/05/05 05:02:34;;;;;;;16.45;8.52;;;;;;;-142.75;100.00;77950.44;5042315;28;20187;-67
2022/05/05 05:05:00;;;;;;;14.93;8.32;;;;;;;-142.75;100.00;77948.47;5042286;28;20527;-67
2022/05/05 05:07:25;;;;;;;18.08;9.02;;;;;;;-142.75;100.00;77940.59;5040433;28;20061;-69
2022/05/05 05:09:50;;;;;;;16.60;8.40;;;;;;;-142.75;100.00;77940.59;5043838;28;20039;-65
2022/05/05 05:12:15;;;;;;;15.50;8.23;;;;;;;-142.75;100.00;77936.66;5042264;28;20322;-67
2022/05/05 05:14:41;;;;;;;15.98;8.05;;;;;;;-142.75;100.00;77928.78;5040946;28;20121;-66
2022/05/05 05:17:06;;;;;;;20.38;8.57;;;;;;;-142.75;100.00;77924.84;5042667;28;20082;-67
2022/05/05 05:19:32;;;;;;;16.52;8.32;;;;;;;-142.75;100.00;77926.81;5039934;28;20056;-67
2022/05/05 05:21:57;;;;;;;14.95;7.40;;;;;;;-142.75;100.00;77924.84;5041768;28;21476;-67
2022/05/05 05:24:22;;;;;;;18.13;8.75;;;;;;;-142.75;100.00;77913.03;5041788;28;20032;-65
2022/05/05 05:26:48;;;;;;;15.15;8.10;;;;;;;-142.75;100.00;77909.06;5043013;28;20033;-67
2022/05/05 05:29:13;;;;;;;17.52;7.65;;;;;;;-142.75;100.00;77901.19;5042090;28;20021;-67
2022/05/05 05:31:38;;;;;;;14.65;7.40;;;;;;;-142.75;100.00;77897.25;5041813;28;20031;-69
2022/05/05 05:34:04;;;;;;;16.77;7.45;;;;;;;-142.75;100.00;77897.25;5042101;28;20025;-68
2022/05/05 05:36:29;;;;;;;15.00;8.10;;;;;;;-142.75;100.00;77895.28;5041621;28;20087;-66
2022/05/05 05:38:54;;;;;;;17.73;8.50;;;;;;;-142.75;100.00;77893.31;5045093;28;20036;-65
2022/05/05 05:41:20;;;;;;;18.93;8.07;;;;;;;-142.75;100.00;77885.44;5041820;28;20028;-66
2022/05/05 05:43:45;;;;;;;17.05;8.35;;;;;;;-142.75;100.00;77881.50;5040317;28;20664;-67
2022/05/05 05:46:11;;;;;;;18.27;8.30;;;;;;;-142.75;100.00;77875.59;5041700;28;20028;-66
2022/05/05 05:48:38;;;;;;;20.58;8.60;;;;;;;-142.75;100.00;77871.66;5041527;28;20090;-68
2022/05/05 05:51:03;;;;;;;18.10;9.65;;;;;;;-142.75;100.00;77861.81;5041558;28;20503;-66
2022/05/05 05:53:29;;;;;;;16.67;7.88;;;;;;;-142.75;100.00;77842.13;5041480;28;20099;-65
2022/05/05 05:55:54;;;;;;;17.40;8.07;;;;;;;-142.75;100.00;77844.09;5040842;28;20115;-65
2022/05/05 05:58:19;;;;;;;20.83;9.75;;;;;;;-142.75;100.00;77846.06;5041364;28;20075;-66
2022/05/05 06:00:44;;;;;;;16.55;9.82;;;;;;;-142.75;100.00;77832.28;5040352;28;20032;-67
2022/05/05 06:05:53;;;;;;;19.85;9.50;;;;;;;-142.75;100.00;77822.44;5039989;28;20467;-66
2022/05/05 06:08:19;;;;;;;21.40;10.05;;;;;;;-142.75;100.00;77822.44;5038864;28;20025;-65
2022/05/05 06:10:45;;;;;;;21.13;10.43;;;;;;;-142.75;100.00;77820.47;5040468;28;20025;-63
2022/05/05 06:13:11;;;;;;;25.10;11.32;;;;;;;-142.75;100.00;77810.63;5039580;28;20037;-65
2022/05/05 06:15:36;;;;;;;22.48;10.38;;;;;;;-142.75;100.00;77806.69;5040925;28;20112;-66
2022/05/05 06:18:01;;;;;;;19.52;9.52;;;;;;;-142.75;100.00;77796.84;5043945;28;20037;-65
2022/05/05 06:20:27;;;;;;;;;;;;;;;-142.75;100.00;77794.88;5043541;28;20029;-65
2022/05/05 06:22:52;;;;;;;21.83;10.88;;;;;;;-142.75;100.00;77777.16;5045715;28;20377;-68
2022/05/05 06:25:20;;;;;;;23.05;10.65;;;;;;;-142.75;100.00;77773.22;5043492;28;20025;-65
2022/05/05 06:27:46;;;;;;;23.10;10.27;;;;;;;-142.75;100.00;77767.31;5046007;28;20063;-64
2022/05/05 06:30:13;;;;;;;26.10;11.40;;;;;;;-142.75;100.00;77773.22;5044082;28;20064;-66
2022/05/05 06:32:39;;;;;;;24.20;12.70;;;;;;;-142.75;100.00;77765.34;5044076;28;20464;-64
2022/05/05 06:35:06;;;;;;;22.60;11.30;;;;;;;-142.75;100.00;77769.28;5044900;28;20025;-65
2022/05/05 06:37:31;;;;;;;25.98;12.27;;;;;;;-142.75;100.00;77773.22;5042757;28;20140;-67
2022/05/05 06:39:56;;;;;;;33.35;13.50;;;;;;;-142.75;100.00;77769.28;5041804;28;20650;-65
2022/05/05 06:42:22;;;;;;;27.90;12.30;;;;;;;-142.75;100.00;77761.41;5044512;28;20028;-65
2022/05/05 06:44:48;;;;;;;28.83;12.75;;;;;;;-142.75;100.00;77753.53;5042891;28;20119;-66
2022/05/05 06:47:13;;;;;;;27.35;13.30;;;;;;;-142.75;100.00;77747.63;5043323;28;20064;-64
2022/05/05 06:49:38;;;;;;;29.98;13.00;;;;;;;-142.75;100.00;77749.59;5042763;28;20041;-65
2022/05/05 06:52:04;;;;;;;31.20;13.48;;;;;;;-142.75;100.00;77747.63;5045365;28;20033;-64
2022/05/05 06:54:29;;;;;;;27.83;13.38;;;;;;;-142.75;100.00;77739.75;5042933;28;20035;-63
2022/05/05 06:56:55;;;;;;;31.85;13.82;;;;;;;-142.75;100.00;77737.78;5043473;28;20017;-67
2022/05/05 06:59:21;;;;;;;33.08;15.20;;;;;;;-142.75;100.00;77731.88;5044072;28;20017;-66
2022/05/05 07:01:52;;;;;;;;;;;;;;;-142.75;100.00;77716.09;5044271;28;20603;-65
2022/05/05 07:07:06;;;;;;;32.67;15.93;;;;;;;-142.75;100.00;77706.25;5046971;28;20516;-65
2022/05/05 07:12:16;;;;;;;36.67;18.48;;;;;;;-142.75;100.00;77700.34;5043309;28;20036;-66
2022/05/05 07:14:44;;;;;;;42.92;19.77;;;;;;;-142.75;100.00;77700.34;5044685;28;20017;-66
2022/05/05 07:17:09;;;;;;;35.40;18.13;;;;;;;-142.75;100.00;77686.56;5045851;28;20028;-65
2022/05/05 07:19:35;;;;;;;38.22;19.40;;;;;;;-142.75;100.00;77684.59;5045789;28;20033;-66
2022/05/05 07:22:00;;;;;;;46.08;19.60;;;;;;;-142.75;100.00;77672.78;5036465;28;20028;-66
2022/05/05 07:24:26;;;;;;;42.60;20.58;;;;;;;-142.75;100.00;77668.84;5049205;28;20170;-63
2022/05/05 07:26:51;;;;;;;45.72;20.13;;;;;;;-142.75;100.00;77660.97;5045226;28;20109;-66
2022/05/05 07:29:16;;;;;;;42.25;20.40;;;;;;;-142.75;100.00;77653.09;5044718;28;20052;-65
2022/05/05 07:31:42;;;;;;;;;;;;;;;-142.75;100.00;77653.09;5045688;28;20486;-65
2022/05/05 07:34:07;;;;;;;46.90;21.95;;;;;;;-142.75;100.00;77649.16;5046313;28;19912;-66
2022/05/05 07:36:32;;;;;;;;;;;;;;;-142.75;100.00;77643.25;5047127;28;20036;-63
2022/05/05 07:38:58;;;;;;;41.13;20.63;;;;;;;-142.75;100.00;77631.44;5048264;28;19923;-66
2022/05/05 07:41:23;;;;;;;;;;;;;;;-142.75;100.00;77631.44;5046633;28;20405;-64
2022/05/05 07:43:50;;;;;;;43.28;21.08;;;;;;;-142.75;100.00;77629.47;5046173;28;19912;-66
2022/05/05 07:46:17;;;;;;;46.33;22.52;;;;;;;-142.75;100.00;77625.53;5043574;28;20025;-65
2022/05/05 07:48:43;;;;;;;41.40;21.17;;;;;;;-142.75;100.00;77625.53;5045677;28;20036;-66
2022/05/05 07:51:09;;;;;;;43.55;22.13;;;;;;;-142.75;100.00;77635.38;5046032;28;20527;-66
2022/05/05 07:53:34;;;;;;;49.75;22.85;;;;;;;-142.75;100.00;77635.38;5045805;28;20033;-66
2022/05/05 07:55:59;;;;;;;;;;;;;;;-142.75;100.00;77639.31;5046978;28;20470;-66
2022/05/05 07:58:25;;;;;;;44.90;21.42;;;;;;;-142.75;100.00;77625.53;5044927;28;20121;-66
2022/05/05 08:00:50;;;;;;;;;;;;;;;-142.75;100.00;77609.78;5046123;28;20035;-66
2022/05/05 08:03:15;;;;;;;42.45;20.55;;;;;;;-142.75;100.00;77609.78;5047061;28;20007;-66
2022/05/05 08:05:40;;;;;;;42.88;22.00;;;;;;;-142.75;100.00;77607.81;5046822;28;20111;-66
2022/05/05 08:08:06;;;;;;;47.13;22.60;;;;;;;-142.75;100.00;77580.25;5065089;22;20079;-66
2022/05/05 08:10:32;;;;;;;49.75;21.77;;;;;;;-142.75;100.00;77584.19;5053536;28;20093;-66
2022/05/05 08:12:57;;;;;;;;;;;;;;;-142.75;100.00;77586.16;5056410;28;20020;-65
2022/05/05 08:15:22;;;;;;;44.75;21.27;;;;;;;-142.75;100.00;77586.16;5055456;28;19913;-68
2022/05/05 08:17:48;;;;;;;56.05;24.30;;;;;;;-142.75;100.00;77578.28;5055184;28;20081;-66
2022/05/05 08:20:15;;;;;;;44.85;22.25;;;;;;;-142.75;100.00;77562.53;5056233;28;20078;-68
2022/05/05 08:22:41;;;;;;;54.05;24.30;;;;;;;-142.75;100.00;77540.88;5053684;28;20482;-66
2022/05/05 08:30:34;;;;;;;44.40;22.05;;;;;;;-142.75;100.00;77552.69;5035402;28;20456;-65
2022/05/05 08:33:00;;;;;;;46.90;23.52;;;;;;;-142.75;100.00;77533.00;5034640;28;20104;-65
2022/05/05 08:35:27;;;;;;;46.00;22.63;;;;;;;-142.75;100.00;77519.22;5033255;28;20108;-66
2022/05/05 08:37:53;;;;;;;50.67;23.83;;;;;;;-142.75;100.00;77529.06;5033755;28;20022;-65
2022/05/05 08:40:22;;;;;;;52.22;21.88;;;;;;;-142.75;100.00;77497.56;5035809;28;20029;-66
2022/05/05 08:42:48;;;;;;;52.50;23.00;;;;;;;-142.75;100.00;77479.84;5035127;28;20029;-66
2022/05/05 08:45:13;;;;;;;44.05;22.65;;;;;;;-142.75;100.00;77475.91;5034263;28;20025;-66
2022/05/05 08:47:40;;;;;;;41.50;21.02;;;;;;;-142.75;100.00;77475.91;5033982;28;20486;-66
2022/05/05 08:50:09;;;;;;;45.22;22.35;;;;;;;-142.75;100.00;77452.25;5034131;28;20029;-66
2022/05/05 08:52:38;;;;;;;44.83;22.73;;;;;;;-142.75;100.00;77444.38;5034343;28;20466;-66
2022/05/05 08:55:04;;;;;;;46.90;22.88;;;;;;;-142.75;100.00;77432.56;5033252;28;20083;-67
2022/05/05 08:57:30;;;;;;;46.88;21.48;;;;;;;-142.75;100.00;77414.84;5034483;28;20037;-67
2022/05/05 08:59:55;;;;;;;;;;;;;;;-142.75;100.00;77393.19;5033915;28;20033;-67
2022/05/05 09:02:21;;;;;;;44.50;21.38;;;;;;;-142.75;100.00;77406.97;5034217;28;19944;-66
2022/05/05 09:04:47;;;;;;;42.95;22.35;;;;;;;-142.75;100.00;77418.78;5033819;28;20052;-66
2022/05/05 09:07:12;;;;;;;;;;;;;;;-142.75;100.00;77424.69;5032974;28;20122;-66
2022/05/05 09:09:38;;;;;;;42.63;22.33;;;;;;;-142.75;100.00;77440.44;5033966;28;19972;-67
2022/05/05 09:12:04;;;;;;;;;;;;;;;-142.75;100.00;77426.66;5034657;28;20076;-66
2022/05/05 09:14:46;;;;;;;44.25;22.20;;;;;;;-142.75;100.00;77414.84;5034707;28;19913;-66
2022/05/05 09:17:17;;;;;;;46.80;23.27;;;;;;;-142.75;100.00;77416.81;5033811;28;20029;-66
2022/05/05 09:19:45;;;;;;;50.80;23.08;;;;;;;-142.75;100.00;77403.03;5034112;28;20038;-67
2022/05/05 09:22:12;;;;;;;42.58;21.60;;;;;;;-142.75;100.00;77422.72;5033839;28;20159;-66
2022/05/05 09:24:41;;;;;;;48.92;22.85;;;;;;;-142.75;100.00;77438.47;5033018;28;20059;-66
2022/05/05 09:27:34;;;;;;;42.67;21.63;;;;;;;-142.75;100.00;77410.91;5031304;28;20471;-66
2022/05/05 09:30:13;;;;;;;41.17;21.13;;;;;;;-142.75;100.00;77389.25;5033109;28;20021;-66
2022/05/05 09:32:39;;;;;;;48.30;23.38;;;;;;;-142.75;100.00;77365.63;5034024;28;20104;-66
2022/05/05 09:35:11;;;;;;;;;;;;;;;-142.75;100.00;77343.97;5034234;28;20056;-66
2022/05/05 09:37:42;;;;;;;42.53;21.35;;;;;;;-142.75;100.00;77316.41;5033587;28;20267;-67
2022/05/05 09:40:07;;;;;;;50.00;22.42;;;;;;;-142.75;100.00;77318.38;5032300;28;20026;-66
2022/05/05 09:42:36;;;;;;;;;;;;;;;-142.75;100.00;77312.47;5034038;28;20033;-66
2022/05/05 09:45:30;;;;;;;44.83;20.60;;;;;;;-142.75;100.00;77318.38;5033790;28;19966;-66
2022/05/05 09:48:01;;;;;;;47.65;23.20;;;;;;;-142.75;100.00;77336.09;5033364;28;20029;-67
2022/05/05 09:50:42;;;;;;;48.30;22.48;;;;;;;-142.75;100.00;77342.00;5033486;28;20021;-66
2022/05/05 09:59:08;;;;;;;46.55;23.35;;;;;;;-142.75;100.00;77334.13;4996027;28;20096;-67
2022/05/05 10:01:35;;;;;;;46.15;22.90;;;;;;;-142.75;100.00;77322.31;5033887;28;20025;-66
2022/05/05 10:04:05;;;;;;;47.53;23.40;;;;;;;-142.75;100.00;77318.38;5032270;28;20067;-66
2022/05/05 10:06:35;;;;;;;46.45;22.48;;;;;;;-142.75;100.00;77294.75;5033318;28;20060;-66
2022/05/05 10:09:05;;;;;;;42.53;22.20;;;;;;;-142.75;100.00;77280.97;5033270;28;20022;-67
2022/05/05 10:11:33;;;;;;;43.28;22.90;;;;;;;-142.75;100.00;77279.00;5033008;28;20063;-66
2022/05/05 10:14:03;;;;;;;52.22;23.95;;;;;;;-142.75;100.00;77259.31;5033259;28;20064;-67
2022/05/05 10:16:31;;;;;;;42.72;22.13;;;;;;;-142.75;100.00;77239.63;5033838;28;20082;-67
2022/05/05 10:18:58;;;;;;;45.35;22.25;;;;;;;-142.75;100.00;77210.09;5032775;28;20057;-67
2022/05/05 10:21:31;;;;;;;40.97;21.08;;;;;;;-142.75;100.00;77200.25;5033699;28;20399;-66
2022/05/05 10:24:15;;;;;;;46.17;24.13;;;;;;;-142.75;100.00;77192.38;5033717;28;20026;-66
2022/05/05 10:26:41;;;;;;;41.83;22.13;;;;;;;-142.75;100.00;77212.06;5033551;28;20085;-67
2022/05/05 10:29:32;;;;;;;45.30;24.02;;;;;;;-142.75;100.00;77219.94;5032814;28;20548;-66
2022/05/05 10:32:21;;;;;;;43.05;22.55;;;;;;;-142.75;100.00;77196.31;5033444;28;20104;-67
2022/05/05 10:34:52;;;;;;;47.28;23.83;;;;;;;-142.75;100.00;77202.22;5024301;28;20040;-66
2022/05/05 10:37:22;;;;;;;45.70;23.05;;;;;;;-142.75;100.00;77178.59;5033562;28;20080;-66
2022/05/05 10:40:06;;;;;;;46.92;23.30;;;;;;;-142.75;100.00;77172.69;5033172;28;20022;-66
2022/05/05 10:42:41;;;;;;;47.42;24.30;;;;;;;-142.75;100.00;77153.00;5033185;28;20075;-66
2022/05/05 10:45:12;;;;;;;42.38;21.40;;;;;;;-142.75;100.00;77174.66;5031599;28;20021;-65
2022/05/05 10:47:54;;;;;;;41.70;21.42;;;;;;;-142.75;100.00;77153.00;5032854;28;20025;-66
2022/05/05 10:50:54;;;;;;;44.33;22.50;;;;;;;-142.75;100.00;77131.34;5033514;28;20033;-66
2022/05/05 10:53:40;;;;;;;39.25;21.98;;;;;;;-142.75;100.00;77154.97;5033036;28;20033;-66
2022/05/05 10:56:23;;;;;;;40.42;21.17;;;;;;;-142.75;100.00;77131.34;5033501;28;20379;-66
2022/05/05 10:58:59;;;;;;;45.40;22.33;;;;;;;-142.75;100.00;77127.41;5032722;28;20034;-67
2022/05/05 11:01:26;;;;;;;41.90;22.10;;;;;;;-142.75;100.00;77129.38;5033156;28;20025;-66
2022/05/05 11:04:30;;;;;;;42.78;23.58;;;;;;;-142.75;100.00;77117.56;5036407;28;20031;-67
2022/05/05 11:07:25;;;;;;;42.72;22.52;;;;;;;-142.75;100.00;77168.75;5035078;28;20030;-66
2022/05/05 11:09:50;;;;;;;43.38;21.10;;;;;;;-142.75;100.00;77141.19;5035815;28;20433;-66
2022/05/05 11:12:19;;;;;;;;;;;;;;;-142.75;100.00;77125.44;5036491;28;20025;-66
2022/05/05 11:23:22;;;;;;;36.17;19.02;;;;;;;-142.75;100.00;77050.63;5036516;28;20435;-67
2022/05/05 11:25:48;;;;;;;34.80;17.02;;;;;;;-142.75;100.00;77023.06;5036174;28;20338;-67
2022/05/05 11:28:14;;;;;;;32.05;16.70;;;;;;;-142.75;100.00;77025.03;5036127;28;20100;-66
2022/05/05 11:30:41;;;;;;;31.75;17.00;;;;;;;-142.75;100.00;77019.13;5036169;28;20112;-66
2022/05/05 11:33:07;;;;;;;32.80;16.65;;;;;;;-142.75;100.00;77064.41;5036549;28;20021;-67
2022/05/05 11:35:33;;;;;;;28.10;15.57;;;;;;;-142.75;100.00;77028.97;5035974;28;20045;-66
2022/05/05 11:37:59;;;;;;;30.98;16.00;;;;;;;-142.75;100.00;77015.19;5035553;28;20029;-67
2022/05/05 11:40:24;;;;;;;28.60;14.70;;;;;;;-142.75;100.00;76983.69;5035942;28;20549;-67
2022/05/05 11:45:37;;;;;;;25.23;13.38;;;;;;;-142.75;100.00;76967.94;5036019;28;20107;-66
2022/05/05 11:48:16;;;;;;;24.65;14.00;;;;;;;-142.75;100.00;76952.19;5035277;28;20021;-67